Time;durP1;ratioP1;P1;durP2;ratioP2;P2;SDS_P1;SDS_P2;PMS_P1;PMS_P2;Temp;Humidity;BMP_temperature;BMP_pressure;BME280_temperature;BME280_humidity;BME280_pressure;Samples;Min_cycle;Max_cycle;Signal;HPM_P1;HPM_P2
2022/12/31 00:02:22;;;;;;;13.48;4.30;;;;;;;;;;5112654;28;20438;-77
2022/12/31 00:04:48;;;;;;;13.60;4.00;;;;;;;;;;5093605;28;20425;-77
2022/12/31 00:07:17;;;;;;;12.55;4.65;;;;;;;;;;5080637;28;20418;-77
2022/12/31 00:09:43;;;;;;;15.57;5.13;;;;;;;;;;5092147;28;20785;-76
2022/12/31 00:12:09;;;;;;;15.53;6.00;;;;;;;;;;5092049;28;20467;-75
2022/12/31 00:14:35;;;;;;;16.55;5.50;;;;;;;;;;5104977;28;20412;-75
2022/12/31 00:17:01;;;;;;;16.23;6.32;;;;;;;;;;5094894;28;20788;-77
2022/12/31 00:19:27;;;;;;;16.27;6.07;;;;;;;;;;5090231;28;20475;-77
2022/12/31 00:21:53;;;;;;;19.30;5.88;;;;;;;;;;5091902;28;20417;-77
2022/12/31 00:24:19;;;;;;;15.20;6.15;;;;;;;;;;5091110;28;20421;-77
2022/12/31 00:26:45;;;;;;;16.58;5.85;;;;;;;;;;5098205;28;20412;-77
2022/12/31 00:29:11;;;;;;;18.90;5.87;;;;;;;;;;5111648;28;20455;-76
2022/12/31 00:31:38;;;;;;;21.85;6.95;;;;;;;;;;5095239;28;20399;-75
2022/12/31 00:34:04;;;;;;;16.83;6.30;;;;;;;;;;5109726;28;20507;-76
2022/12/31 00:36:32;;;;;;;18.73;6.07;;;;;;;;;;5109535;28;20416;-75
2022/12/31 00:38:59;;;;;;;18.85;6.60;;;;;;;;;;5112041;28;20400;-75
2022/12/31 00:41:26;;;;;;;19.08;7.57;;;;;;;;;;5079759;28;20781;-75
2022/12/31 00:43:52;;;;;;;18.27;7.28;;;;;;;;;;5099000;28;20416;-76
2022/12/31 00:46:18;;;;;;;19.83;7.47;;;;;;;;;;5089585;28;20419;-76
2022/12/31 00:48:44;;;;;;;18.15;6.88;;;;;;;;;;5093441;28;20433;-76
2022/12/31 00:51:15;;;;;;;19.38;6.80;;;12.40;99.90;;;;;;5107834;27;20832;-75
2022/12/31 00:53:41;;;;;;;26.80;7.50;;;;;;;;;;5110858;27;20413;-76
2022/12/31 00:56:11;;;;;;;18.20;6.88;;;;;;;;;;5099519;27;20482;-76
2022/12/31 00:58:38;;;;;;;17.83;6.80;;;;;;;;;;5097111;27;20414;-75
2022/12/31 01:01:34;;;;;;;18.33;6.95;;;12.10;99.90;;;;;;5095157;27;20410;-76
2022/12/31 01:04:03;;;;;;;17.10;6.72;;;12.00;99.90;;;;;;5099689;28;20410;-75
2022/12/31 01:06:30;;;;;;;16.67;6.80;;;;;;;;;;5096517;28;20416;-76
2022/12/31 01:08:56;;;;;;;16.65;6.95;;;;;;;;;;5101740;27;20423;-76
2022/12/31 01:11:23;;;;;;;15.07;6.67;;;12.00;99.90;;;;;;5079414;28;20501;-75
2022/12/31 01:13:56;;;;;;;16.33;7.32;;;12.10;99.90;;;;;;5105178;27;20467;-75
2022/12/31 01:16:25;;;;;;;14.87;7.20;;;12.10;99.90;;;;;;5125492;27;20418;-76
2022/12/31 01:18:51;;;;;;;17.33;6.80;;;;;;;;;;5129563;27;20402;-76
2022/12/31 01:21:18;;;;;;;16.15;6.55;;;12.10;99.90;;;;;;5112237;27;20440;-76
2022/12/31 01:23:45;;;;;;;14.55;6.47;;;;;;;;;;5073722;28;20418;-76
2022/12/31 01:26:13;;;;;;;15.10;6.65;;;12.10;99.90;;;;;;5091048;28;20460;-76
2022/12/31 01:28:39;;;;;;;14.45;6.55;;;;;;;;;;5090650;28;20458;-76
2022/12/31 01:31:07;;;;;;;15.65;7.07;;;12.10;99.90;;;;;;5092666;27;20479;-76
2022/12/31 01:33:34;;;;;;;13.38;6.57;;;12.40;99.90;;;;;;5099738;28;20455;-75
2022/12/31 01:36:19;;;;;;;13.88;6.32;;;;;;;;;;5120915;27;20411;-76
2022/12/31 01:38:48;;;;;;;12.95;6.07;;;;;;;;;;5131535;27;20398;-76
2022/12/31 01:41:16;;;;;;;13.32;6.22;;;;;;;;;;5125623;27;20414;-76
2022/12/31 01:43:53;;;;;;;12.23;6.28;;;12.10;99.90;;;;;;5098977;28;20410;-75
2022/12/31 01:46:44;;;;;;;12.93;5.85;;;12.50;99.90;;;;;;5090585;28;20420;-76
2022/12/31 01:49:10;;;;;;;12.30;5.93;;;;;;;;;;5090051;28;20426;-76
2022/12/31 01:51:37;;;;;;;12.95;5.85;;;;;;;;;;5099600;28;20931;-75
2022/12/31 01:54:05;;;;;;;14.70;5.97;;;;;;;;;;5111077;28;20497;-76
2022/12/31 01:56:32;;;;;;;11.48;6.38;;;;;;;;;;5106181;28;20416;-75
2022/12/31 01:58:58;;;;;;;10.80;6.45;;;;;;;;;;5079664;28;20421;-76
2022/12/31 02:01:28;;;;;;;12.47;5.43;;;12.10;99.90;;;;;;5105540;28;20510;-76
2022/12/31 02:03:55;;;;;;;9.80;5.00;;;11.80;99.90;;;;;;5109991;28;20419;-76
2022/12/31 02:06:27;;;;;;;11.43;5.37;;;12.30;99.90;;;;;;5108302;28;20479;-76
2022/12/31 02:08:54;;;;;;;9.57;5.22;;;;;;;;;;5102670;28;20538;-75
2022/12/31 02:11:25;;;;;;;12.13;5.53;;;;;;;;;;5112301;27;20409;-76
2022/12/31 02:13:52;;;;;;;11.10;4.90;;;12.10;99.90;;;;;;5114076;28;20412;-76
2022/12/31 02:16:38;;;;;;;11.45;5.15;;;;;;;;;;5096794;28;20448;-75
2022/12/31 02:19:23;;;;;;;11.77;4.72;;;;;;;;;;5104714;28;20420;-75
2022/12/31 02:21:49;;;;;;;9.77;4.60;;;;;;;;;;5077659;28;21034;-75
2022/12/31 02:24:57;;;;;;;8.90;4.68;;;12.20;99.90;;;;;;5100551;28;20773;-76
2022/12/31 02:27:45;;;;;;;9.33;4.30;;;12.10;99.90;;;;;;5056463;28;20449;-76
2022/12/31 02:30:14;;;;;;;8.57;4.10;;;;;;;;;;5076906;28;20792;-75
2022/12/31 02:32:59;;;;;;;9.47;4.10;;;;;;;;;;5088700;28;20408;-76
2022/12/31 02:35:58;;;;;;;8.60;3.40;;;12.20;99.90;;;;;;5107512;28;20420;-76
2022/12/31 02:38:26;;;;;;;9.07;3.30;;;;;;;;;;5112707;28;20439;-76
2022/12/31 02:40:55;;;;;;;7.03;2.92;;;;;;;;;;5099278;28;20462;-75
2022/12/31 02:43:22;;;;;;;8.30;2.72;;;;;;;;;;5106945;28;20420;-76
2022/12/31 02:45:54;;;;;;;7.60;2.80;;;;;;;;;;5102912;28;20876;-76
2022/12/31 02:48:38;;;;;;;6.57;2.40;;;;;;;;;;5102190;28;20477;-76
2022/12/31 02:51:18;;;;;;;6.73;2.30;;;11.90;99.90;;;;;;5104637;28;20418;-76
2022/12/31 02:53:44;;;;;;;7.78;2.42;;;;;;;;;;5093309;28;20479;-76
2022/12/31 02:56:25;;;;;;;6.97;2.20;;;;;;;;;;5113892;28;20914;-76
2022/12/31 03:04:38;;;;;;;5.68;1.70;;;;;;;;;;5101952;28;20495;-75
2022/12/31 03:07:07;;;;;;;5.65;1.63;;;11.40;99.90;;;;;;5108896;28;20426;-76
2022/12/31 03:09:34;;;;;;;5.50;1.60;;;11.80;99.90;;;;;;5113100;28;20515;-75
2022/12/31 03:14:45;;;;;;;5.35;1.42;;;;;;;;;;5097578;28;20435;-76
2022/12/31 03:17:11;;;;;;;5.88;1.90;;;;;;;;;;5111286;28;20416;-76
2022/12/31 03:22:28;;;;;;;5.57;1.50;;;;;;;;;;5103735;28;20421;-76
2022/12/31 03:27:40;;;;;;;4.13;1.25;;;;;;;;;;5092847;28;20418;-76
2022/12/31 03:30:07;;;;;;;4.80;1.38;;;;;;;;;;5110147;28;20491;-75
2022/12/31 03:32:33;;;;;;;5.25;1.20;;;;;;;;;;5094315;28;20412;-76
2022/12/31 03:34:59;;;;;;;6.22;1.35;;;;;;;;;;5093304;28;20904;-76
2022/12/31 03:37:25;;;;;;;3.67;1.27;;;;;;;;;;5089272;28;20501;-76
2022/12/31 03:39:51;;;;;;;5.82;1.30;;;;;;;;;;5109126;28;20417;-75
2022/12/31 03:42:17;;;;;;;6.05;1.40;;;;;;;;;;5106103;28;20423;-75
2022/12/31 03:44:43;;;;;;;5.30;1.40;;;;;;;;;;5076031;28;20414;-75
2022/12/31 03:47:09;;;;;;;5.45;1.50;;;;;;;;;;5105928;28;20420;-76
2022/12/31 03:49:35;;;;;;;4.07;1.30;;;;;;;;;;5113156;28;20424;-76
2022/12/31 03:52:02;;;;;;;5.53;1.20;;;;;;;;;;5099340;28;20784;-75
2022/12/31 03:54:28;;;;;;;5.53;1.60;;;;;;;;;;5095396;28;20412;-76
2022/12/31 03:56:54;;;;;;;5.53;1.63;;;;;;;;;;5113112;27;20940;-76
2022/12/31 03:59:20;;;;;;;4.95;1.60;;;;;;;;;;5068465;27;20766;-75
2022/12/31 04:01:46;;;;;;;6.13;1.70;;;;;;;;;;5132128;27;20523;-76
2022/12/31 04:04:12;;;;;;;8.10;2.00;;;;;;;;;;5093572;28;20404;-76
2022/12/31 04:06:38;;;;;;;6.85;2.03;;;;;;;;;;5095545;27;20460;-76
2022/12/31 04:09:04;;;;;;;6.07;2.20;;;;;;;;;;5133208;27;20426;-76
2022/12/31 04:11:30;;;;;;;7.60;2.28;;;;;;;;;;5101675;27;20428;-76
2022/12/31 04:13:58;;;;;;;7.20;2.40;;;;;;;;;;5087419;28;20414;-76
2022/12/31 04:16:24;;;;;;;8.80;2.42;;;;;;;;;;5091988;28;20417;-75
2022/12/31 04:18:50;;;;;;;7.87;2.60;;;;;;;;;;5071560;27;20448;-75
2022/12/31 04:21:16;;;;;;;5.28;2.33;;;;;;;;;;5126930;27;20778;-76
2022/12/31 04:23:42;;;;;;;7.20;2.88;;;;;;;;;;5113752;27;20441;-76
2022/12/31 04:26:08;;;;;;;8.07;2.60;;;;;;;;;;5092228;28;20418;-76
2022/12/31 04:28:34;;;;;;;9.07;2.90;;;;;;;;;;5099394;28;20514;-76
2022/12/31 04:31:02;;;;;;;9.63;2.65;;;;;;;;;;5094237;28;20907;-76
2022/12/31 04:33:29;;;;;;;8.13;2.47;;;;;;;;;;5114308;27;20414;-76
2022/12/31 04:36:00;;;;;;;7.63;2.70;;;11.30;99.90;;;;;;5132533;27;20406;-76
2022/12/31 04:38:28;;;;;;;9.25;2.63;;;;;;;;;;5118986;27;20416;-76
2022/12/31 04:43:39;;;;;;;8.63;2.90;;;;;;;;;;5115665;27;20808;-76
2022/12/31 04:46:05;;;;;;;7.90;2.80;;;;;;;;;;5132386;27;20395;-76
2022/12/31 04:48:32;;;;;;;7.47;2.67;;;;;;;;;;5115294;27;20438;-76
2022/12/31 04:50:58;;;;;;;10.35;3.00;;;;;;;;;;5101044;28;20915;-76
2022/12/31 04:53:24;;;;;;;8.25;3.17;;;;;;;;;;5091095;28;20424;-76
2022/12/31 04:55:50;;;;;;;9.07;3.07;;;;;;;;;;5079729;28;20417;-76
2022/12/31 04:58:16;;;;;;;9.57;3.40;;;;;;;;;;5098908;28;20415;-76
2022/12/31 05:00:44;;;;;;;9.60;3.30;;;;;;;;;;5110762;28;20413;-76
2022/12/31 05:03:11;;;;;;;9.30;3.40;;;;;;;;;;5099425;28;20840;-76
2022/12/31 05:05:41;;;;;;;10.90;3.60;;;;;;;;;;5091151;28;20412;-76
2022/12/31 05:08:08;;;;;;;9.73;3.53;;;11.40;99.90;;;;;;5105920;28;20427;-76
2022/12/31 05:10:34;;;;;;;10.32;3.30;;;;;;;;;;5103812;28;20418;-76
2022/12/31 05:13:01;;;;;;;10.75;3.70;;;;;;;;;;5107216;28;20465;-76
2022/12/31 05:15:27;;;;;;;10.23;4.10;;;;;;;;;;5075577;28;20508;-76
2022/12/31 05:17:53;;;;;;;8.68;3.50;;;;;;;;;;5089011;28;20409;-75
2022/12/31 05:20:19;;;;;;;8.85;3.70;;;;;;;;;;5102765;28;20426;-76
2022/12/31 05:22:45;;;;;;;10.68;3.58;;;;;;;;;;5091197;28;20420;-75
2022/12/31 05:25:11;;;;;;;9.32;3.13;;;;;;;;;;5107878;28;20424;-76
2022/12/31 05:27:37;;;;;;;11.38;3.00;;;;;;;;;;5102717;28;20967;-76
2022/12/31 05:30:04;;;;;;;5.22;2.00;;;;;;;;;;5066200;28;20415;-75
2022/12/31 05:32:30;;;;;;;7.18;2.47;;;;;;;;;;5089981;28;20410;-76
2022/12/31 05:34:58;;;;;;;5.05;1.80;;;;;;;;;;5108697;28;20424;-76
2022/12/31 05:37:25;;;;;;;6.45;2.35;;;;;;;;;;5109311;28;20416;-75
2022/12/31 05:39:51;;;;;;;8.68;3.17;;;;;;;;;;5092432;28;20417;-75
2022/12/31 05:42:17;;;;;;;8.18;3.47;;;;;;;;;;5074099;28;20414;-75
2022/12/31 05:44:43;;;;;;;7.97;3.72;;;;;;;;;;5097251;28;20420;-75
2022/12/31 05:47:09;;;;;;;7.33;3.70;;;;;;;;;;5081749;28;20582;-75
2022/12/31 05:49:35;;;;;;;14.23;4.97;;;;;;;;;;5110777;28;20432;-75
2022/12/31 05:52:01;;;;;;;33.17;6.95;;;;;;;;;;5092344;28;20987;-76
2022/12/31 05:54:27;;;;;;;11.45;5.90;;;;;;;;;;5083931;28;20458;-76
2022/12/31 05:56:53;;;;;;;12.57;6.23;;;;;;;;;;5107636;28;20778;-76
2022/12/31 05:59:20;;;;;;;28.10;8.82;;;;;;;;;;5106063;28;20422;-76
2022/12/31 06:01:46;;;;;;;94.50;11.52;;;;;;;;;;5094768;28;20511;-77
2022/12/31 06:04:12;;;;;;;23.53;8.30;;;;;;;;;;5110137;28;20453;-77
2022/12/31 06:06:38;;;;;;;47.80;9.63;;;;;;;;;;5102865;28;20418;-77
2022/12/31 06:09:04;;;;;;;97.50;13.25;;;;;;;;;;5097372;28;20425;-78
2022/12/31 06:11:30;;;;;;;16.02;9.02;;;;;;;;;;5094739;28;20424;-78
2022/12/31 06:13:57;;;;;;;37.47;10.83;;;;;;;;;;5093669;28;20412;-78
2022/12/31 06:16:23;;;;;;;53.03;12.67;;;;;;;;;;5082849;28;20517;-77
2022/12/31 06:18:49;;;;;;;90.95;16.33;;;;;;;;;;5095324;28;20420;-78
2022/12/31 06:21:16;;;;;;;39.00;11.73;;;11.40;99.90;;;;;;5090515;28;20463;-78
2022/12/31 06:23:42;;;;;;;20.98;11.00;;;;;;;;;;5094160;28;20420;-78
2022/12/31 06:26:08;;;;;;;14.88;10.43;;;;;;;;;;5074943;28;20508;-78
2022/12/31 06:28:35;;;;;;;13.77;9.40;;;;;;;;;;5069756;28;20540;-78
2022/12/31 06:31:03;;;;;;;16.30;9.48;;;11.50;99.90;;;;;;5095538;28;20410;-78
2022/12/31 06:33:30;;;;;;;11.75;8.10;;;;;;;;;;5099683;28;20448;-79
2022/12/31 06:35:57;;;;;;;13.57;7.68;;;;;;;;;;5110393;28;20392;-79
2022/12/31 06:38:23;;;;;;;11.23;6.72;;;;;;;;;;5102125;28;20413;-79
2022/12/31 06:40:50;;;;;;;10.27;6.28;;;;;;;;;;5075482;28;20471;-78
2022/12/31 06:43:16;;;;;;;10.40;6.53;;;;;;;;;;5091015;28;20490;-79
2022/12/31 06:45:42;;;;;;;10.90;6.43;;;;;;;;;;5092961;28;20778;-79
2022/12/31 06:48:08;;;;;;;9.48;5.85;;;;;;;;;;5073581;28;20482;-79
2022/12/31 06:50:34;;;;;;;23.50;6.80;;;;;;;;;;5102254;28;20433;-78
2022/12/31 06:53:00;;;;;;;9.27;5.50;;;;;;;;;;5101124;28;20747;-78
2022/12/31 06:55:27;;;;;;;10.10;5.72;;;;;;;;;;5101056;28;20766;-78
2022/12/31 06:57:53;;;;;;;7.80;4.95;;;;;;;;;;5106942;28;20891;-77
2022/12/31 07:00:20;;;;;;;8.95;5.07;;;;;;;;;;5096874;28;20412;-78
2022/12/31 07:03:00;;;;;;;8.05;4.70;;;;;;;;;;5085906;28;20423;-78
2022/12/31 07:05:46;;;;;;;7.30;4.13;;;;;;;;;;5109743;28;20943;-78
2022/12/31 07:08:25;;;;;;;7.25;4.28;;;;;;;;;;5125933;27;20410;-78
2022/12/31 07:10:51;;;;;;;8.25;4.80;;;;;;;;;;5121126;27;20424;-77
2022/12/31 07:13:41;;;;;;;7.97;4.50;;;11.30;99.90;;;;;;5111229;28;20415;-78
2022/12/31 07:16:07;;;;;;;8.50;4.80;;;;;;;;;;5099701;28;20410;-78
2022/12/31 07:18:38;;;;;;;8.40;5.28;;;;;;;;;;5077770;28;20493;-78
2022/12/31 07:21:09;;;;;;;9.15;5.40;;;;;;;;;;5100511;28;20416;-79
2022/12/31 07:23:35;;;;;;;9.85;5.53;;;;;;;;;;5102459;28;20443;-79
2022/12/31 07:26:13;;;;;;;9.87;5.43;;;11.30;99.90;;;;;;5102356;28;20512;-78
2022/12/31 07:28:53;;;;;;;10.70;5.80;;;;;;;;;;5097733;28;20421;-79
2022/12/31 07:31:38;;;;;;;9.98;5.60;;;11.20;99.90;;;;;;5099359;28;20978;-80
2022/12/31 07:34:15;;;;;;;9.63;6.00;;;10.90;99.90;;;;;;5112392;28;20398;-79
2022/12/31 07:36:50;;;;;;;8.85;6.28;;;;;;;;;;5108405;28;20428;-79
2022/12/31 07:39:21;;;;;;;9.80;6.20;;;;;;;;;;5087861;27;20524;-80
2022/12/31 07:41:53;;;;;;;9.82;6.32;;;;;;;;;;5109769;27;20768;-81
2022/12/31 07:44:22;;;;;;;12.02;6.43;;;;;;;;;;5081496;28;20453;-81
2022/12/31 07:46:56;;;;;;;10.35;6.90;;;;;;;;;;5081873;27;21226;-81
2022/12/31 07:49:22;;;;;;;19.08;7.30;;;;;;;;;;5098637;28;20434;-81
2022/12/31 07:51:49;;;;;;;87.05;11.25;;;;;;;;;;5098791;28;20428;-81
2022/12/31 07:54:17;;;;;;;9.02;6.05;;;;;;;;;;5079381;28;20456;-80
2022/12/31 07:56:44;;;;;;;11.27;7.47;;;;;;;;;;5091699;28;20445;-80
2022/12/31 07:59:13;;;;;;;11.60;6.03;;;;;;;;;;5072266;27;20927;-80
2022/12/31 08:01:43;;;;;;;8.93;6.22;;;;;;;;;;5086765;28;20413;-80
2022/12/31 08:04:17;;;;;;;27.92;7.97;;;;;;;;;;5102343;28;20484;-81
2022/12/31 08:07:04;;;;;;;12.52;6.55;;;11.40;99.90;;;;;;5100184;28;20451;-81
2022/12/31 08:09:30;;;;;;;8.90;5.53;;;;;;;;;;5104499;28;20840;-81
2022/12/31 08:11:58;;;;;;;8.60;5.40;;;;;;;;;;5089685;28;20416;-80
2022/12/31 08:14:25;;;;;;;7.50;4.90;;;;;;;;;;5103309;28;21064;-81
2022/12/31 08:16:51;;;;;;;7.85;5.20;;;;;;;;;;5084679;28;20904;-80
2022/12/31 08:19:25;;;;;;;76.50;9.25;;;;;;;;;;5098674;28;20762;-79
2022/12/31 08:22:00;;;;;;;6.72;4.90;;;;;;;;;;5083836;28;20457;-79
2022/12/31 08:24:36;;;;;;;7.30;4.63;;;;;;;;;;5101026;28;20416;-80
2022/12/31 08:27:18;;;;;;;6.32;3.85;;;;;;;;;;5101759;28;20447;-80
2022/12/31 08:29:55;;;;;;;6.90;4.13;;;11.40;99.90;;;;;;5098171;28;20945;-80
2022/12/31 08:32:25;;;;;;;6.20;4.13;;;;;;;;;;5096221;28;20506;-80
2022/12/31 08:34:51;;;;;;;7.00;4.77;;;;;;;;;;5103992;28;20508;-80
2022/12/31 08:37:26;;;;;;;6.00;4.70;;;;;;;;;;5092482;28;20414;-79
2022/12/31 08:40:00;;;;;;;8.50;5.85;;;;;;;;;;5097561;28;20788;-80
2022/12/31 08:42:29;;;;;;;7.45;5.45;;;;;;;;;;5099568;28;20500;-80
2022/12/31 08:45:02;;;;;;;8.30;5.90;;;;;;;;;;5103804;28;20424;-80
2022/12/31 08:47:43;;;;;;;8.82;6.30;;;;;;;;;;5077516;28;20430;-79
2022/12/31 08:50:13;;;;;;;7.88;5.95;;;;;;;;;;5096240;27;20520;-81
2022/12/31 08:52:40;;;;;;;7.50;5.90;;;;;;;;;;5107576;27;20418;-79
2022/12/31 08:55:06;;;;;;;8.70;5.87;;;;;;;;;;5116374;27;20417;-80
2022/12/31 08:57:58;;;;;;;8.52;6.20;;;12.00;99.90;;;;;;5112192;27;20785;-80
2022/12/31 09:00:26;;;;;;;7.20;5.93;;;12.50;99.90;;;;;;5116921;27;20425;-80
2022/12/31 09:02:52;;;;;;;7.45;5.82;;;;;;;;;;5101995;28;20424;-79
2022/12/31 09:05:51;;;;;;;9.27;6.32;;;12.60;99.90;;;;;;5111619;27;20422;-80
2022/12/31 09:08:33;;;;;;;8.02;6.30;;;;;;;;;;5091913;27;20429;-79
2022/12/31 09:11:14;;;;;;;8.35;6.68;;;;;;;;;;5096454;27;20495;-80
2022/12/31 09:14:25;;;;;;;8.27;6.20;;;12.50;99.90;;;;;;5117815;27;20402;-80
2022/12/31 09:16:54;;;;;;;7.72;5.70;;;;;;;;;;5111305;27;20395;-80
2022/12/31 09:19:20;;;;;;;6.97;5.43;;;;;;;;;;5091617;28;20909;-80
2022/12/31 09:21:46;;;;;;;7.30;4.57;;;;;;;;;;5098054;27;20424;-80
2022/12/31 09:24:13;;;;;;;6.22;4.13;;;12.90;99.90;;;;;;5099149;28;20420;-81
2022/12/31 09:26:57;;;;;;;6.03;3.85;;;12.70;99.90;;;;;;5096225;27;20394;-81
2022/12/31 09:29:37;;;;;;;5.18;4.00;;;13.10;99.90;;;;;;5100740;27;20907;-81
2022/12/31 09:32:09;;;;;;;6.50;3.50;;;;;;;;;;5107175;27;20414;-81
2022/12/31 09:35:02;;;;;;;7.25;3.78;;;12.70;99.90;;;;;;5132618;27;20395;-80
2022/12/31 09:37:43;;;;;;;5.55;3.20;;;;;;;;;;5131713;27;20522;-81
2022/12/31 09:40:15;;;;;;;3.65;2.78;;;;;;;;;;5096835;27;20416;-80
2022/12/31 09:42:47;;;;;;;5.35;3.20;;;;;;;;;;5077903;28;20491;-79
2022/12/31 09:45:25;;;;;;;9.23;5.00;;;;;;;;;;5090747;28;20408;-79
2022/12/31 09:48:25;;;;;;;5.63;2.50;;;13.40;99.90;;;;;;5130905;27;20954;-80
2022/12/31 09:50:56;;;;;;;3.88;2.00;;;;;;;;;;5084725;28;20416;-80
2022/12/31 09:53:25;;;;;;;4.35;1.83;;;;;;;;;;5090176;28;20497;-81
2022/12/31 09:55:51;;;;;;;4.13;1.50;;;;;;;;;;5115513;28;20455;-81
2022/12/31 09:58:29;;;;;;;3.28;1.50;;;;;;;;;;5117030;28;20395;-80
2022/12/31 10:01:03;;;;;;;2.78;1.30;;;;;;;;;;5108522;28;20402;-79
2022/12/31 10:03:36;;;;;;;3.17;1.10;;;;;;;;;;5102520;28;20529;-80
2022/12/31 10:06:16;;;;;;;4.32;1.10;;;;;;;;;;5088984;28;20414;-80
2022/12/31 10:08:46;;;;;;;5.43;1.30;;;;;;;;;;5100819;28;20414;-79
2022/12/31 10:11:51;;;;;;;5.22;1.50;;;;;;;;;;5108301;28;20895;-79
2022/12/31 10:14:42;;;;;;;7.20;1.60;;;13.20;99.90;;;;;;5109390;28;20423;-80
2022/12/31 10:17:23;;;;;;;4.82;1.30;;;13.20;99.90;;;;;;5102554;28;20412;-79
2022/12/31 10:19:56;;;;;;;4.95;1.10;;;;;;;;;;5111017;28;20467;-80
2022/12/31 10:22:22;;;;;;;6.50;1.58;;;;;;;;;;5109898;28;20439;-80
2022/12/31 10:24:51;;;;;;;6.87;1.40;;;;;;;;;;5095642;28;20883;-80
2022/12/31 10:27:38;;;;;;;5.60;1.25;;;;;;;;;;5082633;28;20416;-79
2022/12/31 10:30:18;;;;;;;7.30;1.40;;;;;;;;;;5112720;27;20419;-81
2022/12/31 10:32:59;;;;;;;5.57;1.35;;;;;;;;;;5113214;28;20451;-80
2022/12/31 10:35:44;;;;;;;4.40;1.30;;;;;;;;;;5098659;27;20422;-80
2022/12/31 10:38:29;;;;;;;5.80;1.38;;;;;;;;;;5108476;27;20508;-81
2022/12/31 10:40:56;;;;;;;4.47;1.50;;;;;;;;;;5119784;27;20936;-80
2022/12/31 10:43:43;;;;;;;4.97;1.38;;;13.70;99.90;;;;;;5116184;28;20470;-81
2022/12/31 10:46:21;;;;;;;6.18;1.50;;;;;;;;;;5116945;27;20502;-80
2022/12/31 10:48:50;;;;;;;6.32;1.70;;;;;;;;;;5116539;27;20794;-80
2022/12/31 10:51:31;;;;;;;6.28;1.88;;;13.40;99.90;;;;;;5116376;28;20426;-81
2022/12/31 10:54:00;;;;;;;9.65;2.83;;;;;;;;;;5126687;27;20413;-81
2022/12/31 10:56:45;;;;;;;7.50;1.63;;;;;;;;;;5111536;27;20979;-81
2022/12/31 10:59:37;;;;;;;7.78;1.90;;;13.50;99.90;;;;;;5103384;27;20398;-81
2022/12/31 11:02:36;;;;;;;9.07;1.90;;;13.50;99.90;;;;;;5106752;27;20569;-82
2022/12/31 11:05:02;;;;;;;8.18;2.13;;;;;;;;;;5114388;28;20442;-81
2022/12/31 11:07:38;;;;;;;8.55;2.50;;;;;;;;;;5116306;27;20425;-82
2022/12/31 11:10:07;;;;;;;11.53;2.53;;;;;;;;;;5101585;27;20447;-82
2022/12/31 11:12:58;;;;;;;8.80;1.77;;;13.40;99.90;;;;;;5116190;27;20478;-80
2022/12/31 11:15:32;;;;;;;7.85;2.17;;;;;;;;;;5109235;27;20406;-80
2022/12/31 11:18:04;;;;;;;10.68;2.35;;;;;;;;;;5116686;27;20412;-80
2022/12/31 11:20:46;;;;;;;12.43;2.35;;;13.50;99.90;;;;;;5114937;27;20426;-81
2022/12/31 11:23:15;;;;;;;11.82;2.40;;;;;;;;;;5108683;28;20416;-80
2022/12/31 11:25:44;;;;;;;12.50;2.17;;;;;;;;;;5101193;27;20398;-80
2022/12/31 11:28:24;;;;;;;9.23;1.80;;;;;;;;;;5106958;27;20645;-80
2022/12/31 11:31:03;;;;;;;6.60;1.65;;;;;;;;;;5117126;28;20420;-80
2022/12/31 11:33:47;;;;;;;7.38;1.90;;;;;;;;;;5112541;27;20427;-80
2022/12/31 11:36:33;;;;;;;8.20;1.85;;;13.60;99.90;;;;;;5092697;28;20418;-79
2022/12/31 11:39:20;;;;;;;8.45;1.92;;;;;;;;;;5119380;27;20417;-80
2022/12/31 11:42:08;;;;;;;5.95;1.63;;;13.80;99.90;;;;;;5114762;28;20914;-79
2022/12/31 11:45:11;;;;;;;6.38;1.67;;;14.00;99.90;;;;;;5104746;28;20911;-80
2022/12/31 11:47:49;;;;;;;5.93;1.60;;;;;;;;;;5076337;28;20416;-79
2022/12/31 11:50:15;;;;;;;6.53;1.70;;;;;;;;;;5116752;27;20440;-78
2022/12/31 11:52:56;;;;;;;6.30;1.80;;;13.70;99.90;;;;;;5081754;28;20429;-78
2022/12/31 11:55:28;;;;;;;6.55;1.80;;;;;;;;;;5101948;28;20829;-81
2022/12/31 11:57:58;;;;;;;5.22;1.70;;;13.60;99.90;;;;;;5092494;28;20758;-79
2022/12/31 12:00:26;;;;;;;6.18;1.98;;;13.80;99.90;;;;;;5098521;28;20402;-79
2022/12/31 12:02:58;;;;;;;9.02;2.20;;;13.60;99.90;;;;;;5109620;28;20528;-79
2022/12/31 12:05:25;;;;;;;8.90;2.40;;;13.60;99.90;;;;;;5087971;28;20453;-80
2022/12/31 12:07:53;;;;;;;8.70;3.05;;;13.90;99.90;;;;;;5097618;28;20766;-79
2022/12/31 12:10:28;;;;;;;7.05;2.20;;;13.80;99.90;;;;;;5100749;28;20428;-79
2022/12/31 12:12:55;;;;;;;13.55;2.83;;;;;;;;;;5096715;28;20416;-79
2022/12/31 12:15:35;;;;;;;11.38;3.20;;;13.90;99.90;;;;;;5082822;28;20429;-79
2022/12/31 12:18:23;;;;;;;9.98;3.00;;;13.80;99.90;;;;;;5110156;28;20417;-79
2022/12/31 12:20:49;;;;;;;11.82;2.70;;;;;;;;;;5096123;28;20501;-79
2022/12/31 12:23:25;;;;;;;9.13;3.10;;;;;;;;;;5107441;28;20420;-77
2022/12/31 12:25:51;;;;;;;10.63;2.85;;;;;;;;;;5108055;28;20422;-81
2022/12/31 12:28:17;;;;;;;11.48;3.10;;;;;;;;;;5107799;28;20422;-81
2022/12/31 12:30:44;;;;;;;10.30;2.50;;;;;;;;;;5097067;28;20469;-81
2022/12/31 12:33:18;;;;;;;8.37;2.57;;;;;;;;;;5096295;28;20416;-80
2022/12/31 12:35:44;;;;;;;11.50;3.08;;;;;;;;;;5087280;28;20421;-80
2022/12/31 12:38:15;;;;;;;10.93;2.55;;;;;;;;;;5095313;28;20417;-81
2022/12/31 12:40:55;;;;;;;8.00;2.38;;;13.70;99.90;;;;;;5098153;28;20422;-81
2022/12/31 12:43:25;;;;;;;10.52;2.80;;;13.70;99.90;;;;;;5102620;28;20411;-82
2022/12/31 12:45:53;;;;;;;9.93;2.60;;;13.40;99.90;;;;;;5094484;28;20894;-81
2022/12/31 12:48:30;;;;;;;10.45;3.55;;;;;;;;;;5099366;28;20411;-81
2022/12/31 12:50:57;;;;;;;9.05;2.55;;;;;;;;;;5084167;28;20424;-80
2022/12/31 12:53:38;;;;;;;11.80;3.22;;;;;;;;;;5097727;28;20417;-80
2022/12/31 12:56:07;;;;;;;11.73;2.90;;;;;;;;;;5105732;28;20794;-80
2022/12/31 12:58:39;;;;;;;10.55;2.97;;;;;;;;;;5078323;28;20929;-82
2022/12/31 13:01:24;;;;;;;10.77;3.08;;;;;;;;;;5109024;28;20416;-81
2022/12/31 13:03:53;;;;;;;8.93;2.22;;;;;;;;;;5112039;28;20408;-80
2022/12/31 13:06:47;;;;;;;9.80;2.58;;;13.50;99.90;;;;;;5107651;28;20438;-79
2022/12/31 13:09:25;;;;;;;12.35;2.67;;;;;;;;;;5094277;28;20424;-78
2022/12/31 13:12:11;;;;;;;7.93;2.00;;;13.30;99.90;;;;;;5102909;28;20416;-79
2022/12/31 13:14:37;;;;;;;7.50;2.30;;;;;;;;;;5091737;28;20405;-78
2022/12/31 13:17:28;;;;;;;11.00;3.15;;;13.40;99.90;;;;;;5091636;28;20398;-78
2022/12/31 13:19:57;;;;;;;12.55;2.90;;;;;;;;;;5116643;27;20478;-78
2022/12/31 13:22:27;;;;;;;9.10;2.60;;;13.20;99.90;;;;;;5088077;28;20727;-79
2022/12/31 13:24:56;;;;;;;10.98;2.40;;;;;;;;;;5094564;28;20512;-79
2022/12/31 13:27:28;;;;;;;12.32;2.55;;;;;;;;;;5106605;28;20409;-79
2022/12/31 13:29:56;;;;;;;12.85;2.85;;;;;;;;;;5091101;28;20445;-79
2022/12/31 13:32:35;;;;;;;8.65;2.30;;;13.10;99.90;;;;;;5101903;28;21200;-80
2022/12/31 13:35:05;;;;;;;13.03;4.27;;;;;;;;;;5111040;28;20475;-80
2022/12/31 13:37:36;;;;;;;9.60;2.33;;;12.80;99.90;;;;;;5107904;28;20538;-80
2022/12/31 13:40:06;;;;;;;9.50;2.25;;;;;;;;;;5101747;28;20402;-79
2022/12/31 13:43:01;;;;;;;10.90;2.38;;;13.30;99.90;;;;;;5100951;28;20421;-80
2022/12/31 13:45:32;;;;;;;11.63;2.50;;;13.10;99.90;;;;;;5083007;28;20491;-79
2022/12/31 13:48:04;;;;;;;8.18;2.08;;;;;;;;;;5090658;28;20458;-80
2022/12/31 13:50:37;;;;;;;7.13;1.90;;;;;;;;;;5095491;28;20432;-78
2022/12/31 13:53:03;;;;;;;5.57;1.85;;;;;;;;;;5089845;28;20416;-78
2022/12/31 13:55:44;;;;;;;7.03;1.52;;;;;;;;;;5111401;28;20396;-78
2022/12/31 13:58:19;;;;;;;5.47;1.58;;;;;;;;;;5080383;28;20988;-78
2022/12/31 14:00:48;;;;;;;6.90;1.63;;;;;;;;;;5104551;27;20559;-78
2022/12/31 14:03:23;;;;;;;7.90;1.92;;;;;;;;;;5084849;28;20441;-79
2022/12/31 14:05:49;;;;;;;6.85;1.80;;;;;;;;;;5114272;27;20421;-79
2022/12/31 14:08:16;;;;;;;6.20;1.50;;;;;;;;;;5095267;28;20741;-79
2022/12/31 14:10:48;;;;;;;8.75;1.90;;;;;;;;;;5107857;27;20420;-79
2022/12/31 14:13:33;;;;;;;7.53;1.80;;;;;;;;;;5105312;27;20408;-79
2022/12/31 14:16:24;;;;;;;7.13;2.28;;;13.20;99.90;;;;;;5111714;27;20410;-80
2022/12/31 14:19:08;;;;;;;5.60;1.90;;;;;;;;;;5109576;27;20779;-80
2022/12/31 14:21:41;;;;;;;5.80;1.77;;;;;;;;;;5102986;27;20457;-80
2022/12/31 14:24:20;;;;;;;7.15;1.92;;;;;;;;;;5094510;27;20426;-80
2022/12/31 14:26:54;;;;;;;4.68;1.58;;;13.30;99.90;;;;;;5112944;27;20421;-81
2022/12/31 14:29:29;;;;;;;6.55;1.73;;;;;;;;;;5092383;27;20974;-80
2022/12/31 14:32:04;;;;;;;3.95;1.48;;;;;;;;;;5105187;27;20420;-80
2022/12/31 14:34:40;;;;;;;4.53;1.50;;;;;;;;;;5107776;27;20402;-79
2022/12/31 14:37:12;;;;;;;3.90;1.77;;;;;;;;;;5105152;27;20497;-78
2022/12/31 14:39:53;;;;;;;3.60;1.60;;;13.10;99.90;;;;;;5101945;27;20933;-79
2022/12/31 14:42:19;;;;;;;3.95;1.40;;;;;;;;;;5110255;27;20432;-78
2022/12/31 14:44:52;;;;;;;3.70;1.73;;;;;;;;;;5098801;27;20425;-78
2022/12/31 14:47:18;;;;;;;4.07;1.20;;;;;;;;;;5103613;27;20488;-81
2022/12/31 14:49:58;;;;;;;5.32;1.20;;;;;;;;;;5090338;27;20505;-81
2022/12/31 14:52:31;;;;;;;4.28;1.40;;;12.50;99.90;;;;;;5111844;27;20420;-81
2022/12/31 14:54:58;;;;;;;3.75;1.60;;;;;;;;;;5092066;27;20411;-82